Time;durP1;ratioP1;P1;durP2;ratioP2;P2;SDS_P1;SDS_P2;PMS_P1;PMS_P2;Temp;Humidity;BMP_temperature;BMP_pressure;BME280_temperature;BME280_humidity;BME280_pressure;Samples;Min_cycle;Max_cycle;Signal;HPM_P1;HPM_P2
2022/02/03 00:00:40;;;;;;;9.00;7.15;;;;;;;0.21;90.42;96436.27;1732371;83;20958;-80
2022/02/03 00:03:12;;;;;;;10.88;8.23;;;;;;;0.21;90.40;96435.47;1732313;82;21068;-80
2022/02/03 00:05:46;;;;;;;11.65;8.75;;;;;;;0.19;90.41;96441.97;1732791;82;20974;-80
2022/02/03 00:08:19;;;;;;;10.78;8.83;;;;;;;0.19;90.54;96443.71;1732692;82;20989;-80
2022/02/03 00:24:26;;;;;;;19.77;13.75;;;;;;;0.03;90.93;96459.38;1732806;83;20949;-80
2022/02/03 00:27:15;;;;;;;18.48;14.18;;;;;;;0.07;90.78;96472.73;1732761;82;21029;-80
2022/02/03 00:37:59;;;;;;;19.05;14.05;;;;;;;0.04;90.79;96487.02;1729746;82;21487;-81
2022/02/03 00:48:24;;;;;;;18.98;13.20;;;;;;;-0.05;90.09;96521.70;1732851;83;21025;-81
2022/02/03 00:50:51;;;;;;;14.73;10.38;;;;;;;-0.07;90.19;96528.21;1737926;82;20961;-81
2022/02/03 00:53:17;;;;;;;14.45;11.08;;;;;;;-0.07;90.10;96533.32;1735774;82;21005;-81
2022/02/03 00:55:47;;;;;;;10.28;8.58;;;;;;;-0.10;89.81;96536.56;1732999;82;20961;-81
2022/02/03 00:58:15;;;;;;;14.73;9.33;;;;;;;-0.15;89.62;96531.80;1732967;82;21049;-81
2022/02/03 01:00:41;;;;;;;11.08;8.38;;;;;;;-0.18;89.76;96533.74;1733384;82;21092;-81
2022/02/03 01:03:11;;;;;;;10.43;8.45;;;;;;;-0.17;89.86;96532.81;1733112;82;20977;-81
2022/02/03 01:05:37;;;;;;;9.78;7.00;;;;;;;-0.15;89.75;96539.93;1732798;83;21395;-81
2022/02/03 01:08:14;;;;;;;8.43;6.72;;;;;;;-0.15;89.40;96539.47;1732774;83;20940;-81
2022/02/03 01:10:38;;;;;;;10.38;6.72;;;;;;;-0.17;89.17;96547.67;1731659;82;21037;-81
2022/02/03 01:13:15;;;;;;;9.08;6.95;;;;;;;-0.18;89.13;96551.62;1732248;83;21021;-81
2022/02/03 01:15:45;;;;;;;7.22;5.78;;;;;;;-0.21;88.96;96555.68;1730373;83;21076;-81
2022/02/03 01:18:39;;;;;;;8.88;6.60;;;;;;;-0.25;88.87;96560.20;1731680;83;21440;-81
2022/02/03 01:44:57;;;;;;;11.65;7.83;;;;;;;-0.23;89.31;96551.15;1732591;83;21040;-81
2022/02/03 01:47:50;;;;;;;10.45;7.33;;;;;;;-0.25;89.15;96557.65;1730648;82;20966;-81
2022/02/03 01:52:38;;;;;;;8.08;6.45;;;;;;;-0.27;89.18;96569.72;1732872;82;20977;-81
2022/02/03 01:55:08;;;;;;;7.22;5.65;;;;;;;-0.28;88.93;96571.11;1732214;83;21375;-81
2022/02/03 01:57:38;;;;;;;8.25;6.58;;;;;;;-0.29;88.83;96583.06;1732514;83;20980;-81
2022/02/03 02:00:09;;;;;;;10.48;6.08;;;;;;;-0.30;88.77;96589.09;1733250;82;21111;-81
2022/02/03 02:02:38;;;;;;;8.48;5.80;;;;;;;-0.32;88.77;96593.03;1733390;82;21348;-81
2022/02/03 02:05:16;;;;;;;10.48;6.12;;;;;;;-0.32;88.67;96595.59;1732322;83;21105;-81
2022/02/03 02:08:33;;;;;;;11.80;7.03;;;;;;;-0.38;88.39;96589.62;1732292;83;21031;-81
2022/02/03 02:11:39;;;;;;;10.48;5.75;;;;;;;-0.41;88.30;96595.41;1732594;82;21037;-81
2022/02/03 02:36:59;;;;;;;6.28;4.30;;;;;;;-0.61;88.16;96633.38;1732720;82;20961;-81
2022/02/03 02:39:05;;;;;;;8.08;5.20;;;;;;;-0.67;88.35;96646.53;1731830;83;21125;-80
2022/02/03 02:44:29;;;;;;;11.18;5.80;;;;;;;-0.67;88.04;96655.47;1692654;82;21005;-80
2022/02/03 02:46:56;;;;;;;10.03;5.15;;;;;;;-0.65;87.89;96655.39;1735714;82;21019;-80
2022/02/03 02:49:53;;;;;;;8.00;5.12;;;;;;;-0.67;87.67;96662.31;1740895;82;21044;-80
2022/02/03 02:52:26;;;;;;;5.67;5.10;;;;;;;-0.69;87.40;96670.53;1710009;82;21029;-80
2022/02/03 03:31:23;;;;;;;7.80;5.53;;;;;;;-0.79;86.81;96719.30;1740904;81;21363;-80
2022/02/03 03:33:52;;;;;;;7.35;4.87;;;;;;;-0.80;87.00;96721.50;1737323;82;21360;-80
2022/02/03 03:36:12;;;;;;;6.33;4.87;;;;;;;-0.83;86.57;96714.84;1692826;82;20948;-80
2022/02/03 03:38:36;;;;;;;7.20;5.03;;;;;;;-0.85;86.68;96728.16;1696199;82;21001;-80
2022/02/03 03:41:03;;;;;;;9.05;5.53;;;;;;;-0.86;86.78;96726.54;1720358;82;21388;-80
2022/02/03 03:43:43;;;;;;;8.98;4.90;;;;;;;-0.84;86.90;96728.52;1740993;82;21012;-80
2022/02/03 03:46:22;;;;;;;6.67;4.80;;;;;;;-0.83;86.77;96730.15;1740626;82;21040;-80
2022/02/03 03:49:37;;;;;;;12.15;6.37;;;;;;;-0.81;86.69;96730.89;1732775;82;21128;-80
2022/02/03 03:52:04;;;;;;;;;;;;;;;-0.78;86.46;96734.97;1716276;82;21076;-80
2022/02/03 03:54:38;;;;;;;10.70;5.60;;;;;;;-0.82;86.28;96740.71;1742788;82;20484;-80
2022/02/03 05:01:42;;;;;;;13.25;7.95;;;;;;;-1.34;85.88;96787.49;1726870;83;20997;-80
2022/02/03 05:07:52;;;;;;;8.83;5.95;;;;;;;-1.26;85.96;96799.77;1732899;83;21399;-80
2022/02/03 05:13:40;;;;;;;9.20;7.10;;;;;;;-1.21;86.09;96791.35;1732427;82;20994;-80
2022/02/03 05:17:06;;;;;;;8.23;6.70;;;;;;;-1.18;85.97;96789.05;1728342;83;21057;-80
2022/02/03 05:25:10;;;;;;;10.55;7.15;;;;;;;-1.27;85.40;96801.95;1668643;84;21371;-80
2022/02/03 05:35:08;;;;;;;15.23;12.60;;;;;;;-1.28;85.46;96799.05;1703782;84;21001;-81
2022/02/03 06:01:15;;;;;;;40.17;18.77;;;;;;;-1.05;86.05;96839.63;1718249;82;20949;-80
2022/02/03 06:06:28;;;;;;;44.15;20.45;;;;;;;-1.11;85.61;96833.66;1740903;82;20984;-80
2022/02/03 06:08:54;;;;;;;15.70;8.85;;;;;;;-1.08;85.85;96837.28;1715457;82;21324;-80
2022/02/03 06:14:05;;;;;;;16.48;9.68;;;;;;;-1.03;85.52;96830.14;1740851;82;21380;-80
2022/02/03 06:21:58;;;;;;;28.05;15.83;;;;;;;-0.89;86.11;96842.82;1741004;81;21000;-81
2022/02/03 06:29:47;;;;;;;32.33;14.30;;;;;;;-0.81;86.05;96859.73;1741039;82;21001;-80
2022/02/03 06:32:08;;;;;;;18.42;11.12;;;;;;;-0.77;86.06;96864.18;1739508;82;21099;-80
2022/02/03 06:34:34;;;;;;;19.45;9.78;;;;;;;-0.75;85.90;96863.16;1740606;82;20992;-80
2022/02/03 06:37:00;;;;;;;24.05;13.50;;;;;;;-0.69;86.02;96872.13;1740792;82;20949;-80
2022/02/03 06:39:27;;;;;;;45.50;18.98;;;;;;;-0.67;85.95;96870.30;1740800;82;20996;-80
2022/02/03 06:41:57;;;;;;;20.75;12.25;;;;;;;-0.69;85.83;96875.50;1740900;82;21367;-80
2022/02/03 06:44:29;;;;;;;25.40;13.38;;;;;;;-0.75;85.34;96882.30;1740862;82;20993;-80
2022/02/03 06:46:54;;;;;;;19.30;10.70;;;;;;;-0.76;85.52;96884.48;1740020;82;21056;-80
2022/02/03 06:49:32;;;;;;;12.15;8.70;;;;;;;-0.78;85.36;96886.33;1747996;82;21418;-80
2022/02/03 06:51:58;;;;;;;14.80;9.23;;;;;;;-0.78;85.20;96886.78;1745604;82;20957;-80
2022/02/03 06:54:27;;;;;;;15.08;8.95;;;;;;;-0.80;85.29;96889.90;1748454;82;21367;-80
2022/02/03 06:56:56;;;;;;;12.15;8.50;;;;;;;-0.82;84.85;96886.60;1740060;82;20957;-80
2022/02/03 06:59:21;;;;;;;23.57;17.15;;;;;;;-0.77;85.26;96898.63;1739017;82;21368;-80
2022/02/03 07:01:45;;;;;;;28.15;21.65;;;;;;;-0.70;85.25;96892.20;1740259;82;20993;-80
2022/02/03 07:04:18;;;;;;;27.77;17.10;;;;;;;-0.66;85.42;96885.97;1740743;82;21308;-80
2022/02/03 07:06:41;;;;;;;30.55;15.98;;;;;;;-0.63;85.45;96880.69;1738838;81;21027;-80
2022/02/03 07:09:09;;;;;;;18.37;10.90;;;;;;;-0.61;85.36;96881.40;1740779;82;21011;-80
2022/02/03 07:11:37;;;;;;;13.22;8.45;;;;;;;-0.59;85.16;96878.74;1711426;84;21039;-80
2022/02/03 07:14:06;;;;;;;11.78;7.78;;;;;;;-0.62;84.73;96874.20;1711286;84;21352;-80
2022/02/03 07:16:35;;;;;;;11.43;8.20;;;;;;;-0.68;84.54;96882.23;1711486;83;21048;-81
2022/02/03 07:19:02;;;;;;;11.22;8.00;;;;;;;-0.71;84.59;96887.55;1711354;84;21008;-80
2022/02/03 07:21:28;;;;;;;10.53;7.87;;;;;;;-0.70;84.59;96888.36;1711466;83;20956;-80
2022/02/03 07:23:54;;;;;;;13.38;8.13;;;;;;;-0.72;84.48;96892.30;1711568;83;21036;-80
2022/02/03 07:26:20;;;;;;;11.90;9.15;;;;;;;-0.71;84.55;96895.66;1711554;83;21386;-80
2022/02/03 07:28:45;;;;;;;9.90;6.45;;;;;;;-0.71;84.28;96895.20;1711576;83;21004;-80
2022/02/03 07:31:11;;;;;;;10.50;6.47;;;;;;;-0.72;84.05;96902.50;1711520;83;21057;-81
2022/02/03 07:33:37;;;;;;;9.95;6.12;;;;;;;-0.68;84.15;96912.86;1711471;84;21107;-80
2022/02/03 07:36:04;;;;;;;10.10;6.30;;;;;;;-0.67;83.91;96916.23;1711701;84;20977;-80
2022/02/03 07:38:30;;;;;;;9.58;6.28;;;;;;;-0.63;84.18;96921.06;1711468;84;20973;-80
2022/02/03 07:40:56;;;;;;;16.48;10.20;;;;;;;-0.57;84.32;96921.11;1711517;84;21351;-80
2022/02/03 07:43:22;;;;;;;19.23;11.48;;;;;;;-0.48;84.55;96918.44;1711586;83;20965;-80
2022/02/03 07:45:48;;;;;;;44.77;30.88;;;;;;;-0.46;84.39;96912.30;1711483;83;20988;-80
2022/02/03 07:48:15;;;;;;;109.15;47.70;;;;;;;-0.41;84.34;96915.82;1711242;83;21013;-80
2022/02/03 07:50:42;;;;;;;96.85;37.28;;;;;;;-0.38;84.46;96911.78;1655905;83;21348;-80
2022/02/03 07:53:07;;;;;;;23.92;14.25;;;;;;;-0.29;84.41;96908.64;1711426;83;20992;-80
2022/02/03 07:55:35;;;;;;;19.55;10.55;;;;;;;-0.24;84.28;96907.86;1708613;83;21036;-80
2022/02/03 07:58:02;;;;;;;19.95;12.85;;;;;;;-0.18;84.12;96895.12;1703756;83;21395;-80
2022/02/03 08:00:28;;;;;;;89.20;34.90;;;;;;;-0.12;84.01;96903.67;1703638;83;21095;-81
2022/02/03 08:02:53;;;;;;;26.45;14.18;;;;;;;0.01;84.33;96895.55;1703885;84;21432;-81
2022/02/03 08:05:21;;;;;;;40.55;18.15;;;;;;;0.07;83.84;96899.41;1703638;84;20968;-80
2022/02/03 08:08:04;;;;;;;34.95;19.05;;;;;;;0.14;84.00;96898.87;1710416;81;20998;-80
2022/02/03 08:13:01;;;;;;;22.77;15.60;;;;;;;0.20;83.83;96895.11;1736339;82;20966;-80
2022/02/03 08:15:27;;;;;;;29.80;17.25;;;;;;;0.23;83.84;96907.20;1732622;83;20953;-80
2022/02/03 08:17:59;;;;;;;43.68;23.98;;;;;;;0.31;84.02;96906.67;1732820;82;21036;-80
2022/02/03 08:20:21;;;;;;;51.95;23.98;;;;;;;0.42;84.16;96895.25;1732407;83;21403;-80
2022/02/03 08:22:55;;;;;;;29.55;19.82;;;;;;;0.53;83.96;96900.44;1732835;82;20989;-80
2022/02/03 08:25:24;;;;;;;23.05;17.55;;;;;;;0.64;83.52;96893.28;1731751;83;21352;-80
2022/02/03 08:30:35;;;;;;;47.80;23.60;;;;;;;0.82;83.20;96893.75;1626412;87;21044;-81
2022/02/03 08:32:58;;;;;;;64.17;26.27;;;;;;;0.92;83.23;96891.33;1730560;83;20994;-80
2022/02/03 08:35:35;;;;;;;36.25;21.17;;;;;;;0.98;83.01;96894.28;1732328;82;21017;-80
2022/02/03 08:40:26;;;;;;;63.95;29.40;;;;;;;1.05;83.01;96895.93;1732849;83;21017;-80
2022/02/03 08:42:49;;;;;;;30.55;17.67;;;;;;;1.13;82.74;96889.78;1732419;83;21049;-81
2022/02/03 08:45:15;;;;;;;88.90;39.00;;;;;;;1.17;82.36;96900.98;1732625;82;20961;-81
2022/02/03 08:47:41;;;;;;;52.50;31.77;;;;;;;1.21;82.10;96890.06;1732592;82;21072;-81
2022/02/03 08:50:08;;;;;;;66.87;36.10;;;;;;;1.24;81.97;96893.67;1732583;82;21499;-81
2022/02/03 08:52:58;;;;;;;58.92;27.32;;;;;;;1.27;82.25;96893.44;1732472;82;20991;-80
2022/02/03 08:58:45;;;;;;;101.55;53.83;;;;;;;1.28;81.90;96889.13;1732673;83;21028;-80
2022/02/03 09:00:36;;;;;;;39.03;23.98;;;;;;;1.34;82.22;96886.96;1713903;83;20977;-81
2022/02/03 09:34:21;;;;;;;11.00;6.30;;;;;;;1.52;81.13;96871.17;1732544;83;21317;-81
2022/02/03 09:52:06;;;;;;;8.98;5.95;;;;;;;2.02;80.39;96860.48;1733002;82;21381;-81
2022/02/03 09:56:53;;;;;;;20.12;10.88;;;;;;;2.12;79.74;96861.89;1732673;82;21044;-80
2022/02/03 09:58:41;;;;;;;28.35;16.02;;;;;;;2.15;79.88;96852.69;1719876;83;21064;-80
2022/02/03 10:01:09;;;;;;;27.85;19.50;;;;;;;2.18;79.57;96856.75;1732840;82;21391;-80
2022/02/03 10:06:09;;;;;;;48.68;23.07;;;;;;;2.03;79.69;96860.02;1733135;82;21040;-80
2022/02/03 10:08:34;;;;;;;31.00;16.10;;;;;;;2.11;80.16;96856.39;1702925;83;21002;-80
2022/02/03 10:11:18;;;;;;;24.95;11.35;;;;;;;2.34;80.28;96850.32;1732596;83;21056;-80
2022/02/03 10:13:49;;;;;;;37.13;18.95;;;;;;;2.56;79.98;96853.30;1732712;83;20958;-80
2022/02/03 10:16:18;;;;;;;16.87;9.50;;;;;;;2.74;79.76;96847.64;1732541;83;21097;-80
2022/02/03 10:18:44;;;;;;;39.13;19.75;;;;;;;2.82;79.12;96844.02;1732718;83;20963;-80
2022/02/03 10:21:18;;;;;;;24.50;13.93;;;;;;;2.87;78.72;96834.19;1732487;83;21343;-80
2022/02/03 10:23:54;;;;;;;33.05;15.70;;;;;;;2.98;79.17;96840.10;1732679;83;21383;-80
2022/02/03 10:26:20;;;;;;;10.98;6.92;;;;;;;3.11;78.40;96845.54;1732301;83;21398;-80
2022/02/03 10:28:54;;;;;;;16.77;8.20;;;;;;;3.09;78.16;96837.96;1732600;82;20965;-81
2022/02/03 10:31:25;;;;;;;27.30;13.30;;;;;;;3.23;78.38;96847.91;1732679;82;20949;-80
2022/02/03 10:34:02;;;;;;;25.35;12.55;;;;;;;3.34;78.28;96835.48;1732634;83;21045;-80
2022/02/03 11:06:21;;;;;;;9.85;5.67;;;;;;;3.64;76.62;96808.20;1740801;82;20950;-81
2022/02/03 11:07:56;;;;;;;7.85;4.75;;;;;;;3.76;76.59;96808.47;1709282;82;20949;-80
2022/02/03 11:10:35;;;;;;;9.85;4.70;;;;;;;3.85;75.54;96808.48;1740403;82;21403;-80
2022/02/03 11:12:58;;;;;;;9.95;4.35;;;;;;;3.94;75.42;96805.63;1719906;82;21037;-81
2022/02/03 11:15:26;;;;;;;7.67;3.80;;;;;;;3.90;74.16;96802.95;1740871;81;20968;-81
2022/02/03 11:17:56;;;;;;;9.98;5.45;;;;;;;3.84;74.57;96797.05;1740730;82;21462;-80
2022/02/03 11:20:25;;;;;;;7.92;4.92;;;;;;;3.77;73.90;96794.20;1740715;82;20968;-81
2022/02/03 12:19:04;;;;;;;8.45;4.75;;;;;;;3.75;71.72;96778.09;1732087;82;21092;-80
2022/02/03 12:22:43;;;;;;;8.83;4.87;;;;;;;3.75;71.08;96771.67;1731316;82;21336;-80
2022/02/03 12:25:07;;;;;;;10.25;6.50;;;;;;;3.68;71.03;96777.44;1724389;83;21439;-80
2022/02/03 12:26:50;;;;;;;8.25;5.45;;;;;;;3.57;70.68;96771.91;1710201;83;21013;-80
2022/02/03 12:29:21;;;;;;;9.03;4.25;;;;;;;3.41;70.87;96774.12;1731875;83;21000;-81
2022/02/03 12:31:56;;;;;;;9.60;4.65;;;;;;;3.22;70.40;96771.80;1731203;83;21006;-80
2022/02/03 12:37:09;;;;;;;7.87;3.83;;;;;;;3.02;71.76;96775.20;1732657;82;21042;-80
2022/02/03 12:45:17;;;;;;;9.40;4.70;;;;;;;3.14;72.11;96751.09;1733045;82;21030;-80
2022/02/03 12:47:42;;;;;;;6.12;3.47;;;;;;;3.15;72.43;96744.20;1732345;83;21015;-80
2022/02/03 12:50:14;;;;;;;6.08;3.30;;;;;;;3.12;71.37;96737.57;1732570;82;21024;-81
2022/02/03 12:52:45;;;;;;;4.58;3.47;;;;;;;3.06;71.06;96735.96;1732802;83;21360;-80
2022/02/03 12:55:21;;;;;;;8.45;4.30;;;;;;;2.98;70.79;96725.87;1712651;83;21412;-80
2022/02/03 12:57:48;;;;;;;5.75;3.65;;;;;;;2.96;71.12;96725.19;1732790;83;21020;-80
2022/02/03 13:00:27;;;;;;;4.33;2.90;;;;;;;2.96;70.65;96721.80;1732711;82;21407;-81
2022/02/03 13:02:56;;;;;;;5.40;3.25;;;;;;;2.96;70.41;96723.09;1731803;83;20977;-80
2022/02/03 13:05:24;;;;;;;4.78;3.70;;;;;;;2.99;70.73;96717.70;1711459;83;21471;-81
2022/02/03 13:07:52;;;;;;;4.60;3.40;;;;;;;3.04;70.87;96723.72;1732646;82;21048;-80
2022/02/03 13:10:26;;;;;;;6.85;3.45;;;;;;;3.06;71.09;96720.55;1732429;83;21038;-80
2022/02/03 13:13:06;;;;;;;7.97;3.65;;;;;;;3.10;71.44;96715.06;1731795;83;21411;-80
2022/02/03 13:15:37;;;;;;;5.60;3.12;;;;;;;3.11;70.86;96704.33;1732380;83;20961;-80
2022/02/03 13:18:07;;;;;;;6.85;3.10;;;;;;;3.12;71.26;96707.23;1732698;83;21100;-80
2022/02/03 13:20:37;;;;;;;5.72;3.02;;;;;;;3.10;69.86;96706.08;1732013;83;20986;-80
2022/02/03 13:23:02;;;;;;;5.72;3.95;;;;;;;3.09;70.34;96710.88;1731708;83;21044;-80
2022/02/03 13:28:12;;;;;;;8.10;3.60;;;;;;;3.12;70.32;96710.61;1736221;82;20993;-81
2022/02/03 13:30:56;;;;;;;6.85;3.12;;;;;;;3.16;70.59;96713.73;1732264;83;20997;-80
2022/02/03 13:33:24;;;;;;;7.20;3.40;;;;;;;3.18;70.24;96715.70;1732028;83;21014;-80
2022/02/03 13:36:02;;;;;;;5.30;2.67;;;;;;;3.18;69.92;96715.70;1732526;83;20985;-80
2022/02/03 13:38:56;;;;;;;6.15;3.27;;;;;;;3.16;69.16;96713.73;1731596;83;21013;-80
2022/02/03 13:41:19;;;;;;;4.58;2.85;;;;;;;3.13;69.30;96718.66;1703359;84;20954;-80
2022/02/03 13:43:45;;;;;;;7.22;3.65;;;;;;;3.14;69.76;96718.19;1703413;84;20945;-80
2022/02/03 13:46:15;;;;;;;9.10;3.95;;;;;;;3.15;70.22;96714.20;1703569;84;21419;-80
2022/02/03 13:48:41;;;;;;;5.85;3.75;;;;;;;3.13;69.80;96710.95;1700285;84;21036;-80
2022/02/03 13:51:10;;;;;;;7.42;3.47;;;;;;;3.13;69.58;96705.00;1703336;83;21534;-80
2022/02/03 13:53:48;;;;;;;7.40;4.37;;;;;;;3.11;69.35;96713.31;1703580;83;21009;-80
2022/02/03 14:18:35;;;;;;;6.87;3.70;;;;;;;2.91;71.15;96679.00;1703445;84;21017;-80
2022/02/03 14:21:06;;;;;;;7.12;4.03;;;;;;;2.86;71.06;96676.81;1701997;84;21392;-81
2022/02/03 14:29:06;;;;;;;7.70;4.42;;;;;;;2.65;71.23;96674.74;1703546;84;21017;-80
2022/02/03 14:31:33;;;;;;;6.22;3.17;;;;;;;2.59;71.32;96677.78;1703334;84;21060;-80
2022/02/03 14:34:01;;;;;;;4.80;3.30;;;;;;;2.56;71.61;96676.29;1703462;84;21056;-80
2022/02/03 14:36:29;;;;;;;6.87;3.50;;;;;;;2.53;71.79;96674.45;1703506;84;21408;-80
2022/02/03 14:39:04;;;;;;;5.55;3.00;;;;;;;2.48;71.77;96683.00;1731099;83;21053;-80
2022/02/03 14:41:35;;;;;;;5.70;4.20;;;;;;;2.46;71.60;96681.84;1703653;84;21080;-80
2022/02/03 14:43:59;;;;;;;5.00;3.47;;;;;;;2.43;71.45;96678.22;1702699;84;20989;-80
2022/02/03 14:46:26;;;;;;;6.35;3.42;;;;;;;2.42;72.22;96681.72;1703251;84;21036;-80
2022/02/03 14:48:52;;;;;;;5.37;3.08;;;;;;;2.34;72.22;96679.78;1703697;84;21028;-80
2022/02/03 14:51:23;;;;;;;4.80;2.75;;;;;;;2.32;71.76;96677.82;1710984;83;21024;-80
2022/02/03 14:53:56;;;;;;;5.83;3.50;;;;;;;2.31;71.73;96668.97;1711068;84;21327;-81
2022/02/03 14:59:04;;;;;;;4.83;3.05;;;;;;;2.14;71.36;96665.20;1711462;84;20981;-80
2022/02/03 15:01:32;;;;;;;4.22;3.00;;;;;;;2.16;71.48;96660.76;1711570;84;21083;-80
2022/02/03 15:03:59;;;;;;;4.67;3.15;;;;;;;2.13;71.72;96662.29;1711128;83;21439;-80
2022/02/03 15:06:28;;;;;;;4.10;3.25;;;;;;;2.06;72.15;96650.88;1711326;83;21017;-80
2022/02/03 15:11:55;;;;;;;4.33;2.83;;;;;;;1.92;72.36;96653.72;1625525;88;21420;-80
2022/02/03 15:14:07;;;;;;;3.67;3.00;;;;;;;1.83;72.12;96651.44;1684072;84;21007;-80
2022/02/03 15:16:33;;;;;;;4.85;3.08;;;;;;;1.79;72.24;96647.50;1691438;84;20964;-80
2022/02/03 15:18:58;;;;;;;5.10;3.30;;;;;;;1.72;72.14;96651.45;1711263;83;21079;-80
2022/02/03 15:21:24;;;;;;;5.58;3.20;;;;;;;1.68;72.46;96639.83;1711340;83;20996;-80
2022/02/03 15:23:50;;;;;;;4.95;2.62;;;;;;;1.63;72.57;96646.60;1711482;83;21020;-80
2022/02/03 15:26:16;;;;;;;4.00;2.87;;;;;;;1.56;72.19;96648.00;1711444;84;21367;-80
2022/02/03 15:28:42;;;;;;;5.65;2.40;;;;;;;1.51;72.43;96641.15;1711362;83;21000;-80
2022/02/03 15:31:08;;;;;;;6.30;3.62;;;;;;;1.47;72.76;96636.73;1711581;83;20965;-80
2022/02/03 15:33:35;;;;;;;5.87;3.47;;;;;;;1.44;72.26;96639.98;1711543;83;21328;-80
2022/02/03 15:36:05;;;;;;;5.50;2.95;;;;;;;1.45;71.97;96641.61;1711518;83;20957;-80
2022/02/03 15:38:34;;;;;;;5.20;4.17;;;;;;;1.46;71.79;96635.55;1724004;81;21423;-80
2022/02/03 15:41:00;;;;;;;5.78;3.70;;;;;;;1.48;72.10;96646.05;1731227;82;21055;-80
2022/02/03 15:43:28;;;;;;;6.95;4.92;;;;;;;1.49;71.91;96631.50;1740634;82;20996;-80
2022/02/03 15:45:57;;;;;;;6.15;4.37;;;;;;;1.51;71.57;96639.87;1740723;82;21064;-80
2022/02/03 15:56:47;;;;;;;4.12;3.37;;;;;;;1.46;72.12;96629.99;1732901;82;20954;-80
2022/02/03 16:04:28;;;;;;;5.92;3.00;;;;;;;1.40;72.28;96634.29;1732831;82;20950;-81
2022/02/03 16:17:37;;;;;;;5.25;3.42;;;;;;;1.09;72.46;96621.75;1732874;83;21372;-80
2022/02/03 16:22:51;;;;;;;5.17;2.95;;;;;;;1.15;72.74;96626.42;1732805;82;21032;-80
2022/02/03 16:25:30;;;;;;;;;;;;;;;1.21;72.27;96618.73;1734589;83;20993;-80
2022/02/03 16:54:35;;;;;;;3.50;2.92;;;;;;;1.45;71.36;96601.91;1751186;82;21339;-80
2022/02/03 16:57:08;;;;;;;7.47;3.45;;;;;;;1.42;71.54;96599.13;1746887;82;21008;-80
2022/02/03 16:59:30;;;;;;;4.72;3.83;;;;;;;1.37;71.14;96599.97;1720026;82;20989;-80
2022/02/03 17:01:56;;;;;;;5.33;2.90;;;;;;;1.39;71.42;96594.25;1741000;82;21048;-80
2022/02/03 17:04:21;;;;;;;8.23;6.72;;;;;;;1.39;71.93;96590.88;1740960;82;20965;-80
2022/02/03 17:06:47;;;;;;;7.37;5.47;;;;;;;1.36;71.14;96589.38;1740955;82;21043;-80
2022/02/03 17:09:14;;;;;;;6.28;4.42;;;;;;;1.41;70.98;96594.95;1740522;82;21064;-80
2022/02/03 17:11:40;;;;;;;11.85;6.35;;;;;;;1.44;71.46;96597.73;1740976;82;21306;-80
2022/02/03 17:14:06;;;;;;;8.98;5.50;;;;;;;1.39;70.52;96590.42;1740777;82;20917;-80
2022/02/03 17:16:32;;;;;;;12.88;5.25;;;;;;;1.42;70.98;96586.33;1740971;82;21331;-80
2022/02/03 17:18:58;;;;;;;6.12;3.62;;;;;;;1.47;70.97;96590.64;1740732;82;21427;-80
2022/02/03 17:21:27;;;;;;;19.00;10.58;;;;;;;1.47;71.33;96592.39;1740887;82;20949;-80
2022/02/03 17:23:52;;;;;;;11.18;6.45;;;;;;;1.40;70.89;96592.51;1740408;82;21059;-80
2022/02/03 17:26:32;;;;;;;9.00;5.55;;;;;;;1.41;70.63;96587.73;1740630;82;20961;-80
2022/02/03 17:28:55;;;;;;;10.93;6.65;;;;;;;1.49;71.08;96577.25;1740238;81;21083;-80
2022/02/03 17:31:30;;;;;;;10.25;7.62;;;;;;;1.50;70.76;96567.82;1740069;82;20941;-80
2022/02/03 18:33:43;;;;;;;6.97;5.35;;;;;;;1.85;69.41;96518.89;1711239;83;21388;-80
2022/02/03 18:35:25;;;;;;;8.68;6.20;;;;;;;1.87;69.39;96518.77;1682424;84;21043;-80
2022/02/03 18:50:58;;;;;;;6.80;4.85;;;;;;;2.03;68.01;96499.91;1610377;89;21139;-80
2022/02/03 18:53:30;;;;;;;5.47;3.80;;;;;;;2.04;68.32;96500.26;1700877;84;21005;-80
2022/02/03 20:08:27;;;;;;;4.05;3.00;;;;;;;2.63;66.22;96405.50;1721124;81;21543;-80
2022/02/03 20:10:48;;;;;;;3.90;2.37;;;;;;;2.65;66.04;96401.04;1717168;83;21073;-80
2022/02/03 20:13:13;;;;;;;4.42;2.72;;;;;;;2.66;65.27;96401.38;1732556;83;21041;-80
2022/02/03 20:15:40;;;;;;;3.42;2.45;;;;;;;2.67;66.11;96402.19;1712065;83;21025;-80
2022/02/03 20:18:11;;;;;;;4.53;2.90;;;;;;;2.66;65.87;96396.72;1732795;83;21009;-81
2022/02/03 20:20:38;;;;;;;5.42;2.55;;;;;;;2.65;65.72;96394.63;1732987;82;21020;-80
2022/02/03 20:23:10;;;;;;;3.60;2.60;;;;;;;2.65;65.18;96394.63;1732804;83;21040;-80
2022/02/03 20:25:32;;;;;;;14.78;10.18;;;;;;;2.66;65.34;96390.30;1732191;83;21028;-81
2022/02/03 20:27:58;;;;;;;4.90;3.45;;;;;;;2.67;65.80;96391.92;1732700;83;21036;-81
2022/02/03 20:30:24;;;;;;;11.03;9.48;;;;;;;2.65;65.71;96385.65;1732907;82;21335;-80
2022/02/03 20:32:49;;;;;;;9.85;8.30;;;;;;;2.66;65.23;96383.89;1732883;83;20961;-80
2022/02/03 20:35:15;;;;;;;4.90;2.85;;;;;;;2.66;65.73;96373.16;1732895;82;21013;-80
2022/02/03 20:37:41;;;;;;;7.35;3.00;;;;;;;2.66;65.17;96372.34;1732859;82;21336;-81
2022/02/03 20:40:08;;;;;;;5.25;4.03;;;;;;;2.71;64.75;96365.05;1732920;82;20985;-80
2022/02/03 20:42:34;;;;;;;5.10;2.50;;;;;;;2.74;65.65;96362.69;1733293;82;20953;-80
2022/02/03 20:44:59;;;;;;;5.75;3.35;;;;;;;2.73;64.44;96369.58;1732639;82;20918;-80
2022/02/03 20:47:25;;;;;;;6.12;3.87;;;;;;;2.76;65.05;96366.73;1732933;82;20961;-81
2022/02/03 20:49:51;;;;;;;5.85;3.45;;;;;;;2.75;65.38;96367.69;1732864;82;21040;-81
2022/02/03 20:52:18;;;;;;;6.62;3.05;;;;;;;2.75;65.29;96366.41;1741118;82;21000;-81
2022/02/03 20:54:46;;;;;;;6.45;3.05;;;;;;;2.76;65.33;96370.59;1746027;82;20988;-80
2022/02/03 20:57:12;;;;;;;5.83;3.20;;;;;;;2.77;65.58;96370.95;1741613;82;21023;-80
2022/02/03 20:59:56;;;;;;;6.47;2.98;;;;;;;2.79;65.45;96367.78;1740764;82;21006;-80
2022/02/03 21:02:10;;;;;;;7.67;4.30;;;;;;;2.79;65.45;96369.06;1736630;82;20977;-80
2022/02/03 21:04:55;;;;;;;6.72;3.50;;;;;;;2.78;65.20;96372.58;1740134;82;20930;-81
2022/02/03 21:07:00;;;;;;;4.95;3.25;;;;;;;2.79;64.53;96365.69;1736834;82;21368;-80
2022/02/03 21:09:26;;;;;;;7.75;3.60;;;;;;;2.82;65.36;96361.09;1724422;82;21016;-81
2022/02/03 21:11:52;;;;;;;5.67;3.87;;;;;;;2.82;65.41;96367.50;1703196;82;21030;-80
2022/02/03 21:14:18;;;;;;;5.22;3.35;;;;;;;2.82;65.80;96367.98;1731682;82;20996;-80
2022/02/03 21:16:50;;;;;;;4.25;2.27;;;;;;;2.83;65.26;96367.84;1725885;82;22075;-80
2022/02/03 21:19:11;;;;;;;6.60;2.92;;;;;;;2.84;65.39;96378.91;1737402;82;21088;-81
2022/02/03 21:21:39;;;;;;;4.97;3.10;;;;;;;2.84;65.20;96374.59;1725787;82;21434;-81
2022/02/03 21:24:05;;;;;;;5.75;2.47;;;;;;;2.87;65.51;96376.89;1711130;82;20937;-80
2022/02/03 21:26:37;;;;;;;7.10;3.25;;;;;;;2.91;65.56;96379.98;1710757;82;21343;-80
2022/02/03 21:28:59;;;;;;;6.60;3.47;;;;;;;2.96;65.44;96377.85;1725722;82;20996;-80
2022/02/03 21:31:25;;;;;;;6.03;3.22;;;;;;;2.98;65.58;96375.95;1720051;82;21351;-80
2022/02/03 21:33:55;;;;;;;7.67;4.05;;;;;;;2.99;65.32;96381.42;1725493;82;20976;-80
2022/02/03 21:36:20;;;;;;;7.62;3.85;;;;;;;2.99;65.37;96388.66;1729477;81;21307;-81
2022/02/03 21:38:46;;;;;;;4.75;3.22;;;;;;;2.96;64.88;96391.49;1715475;82;20961;-81
2022/02/03 21:41:13;;;;;;;6.30;3.20;;;;;;;2.95;65.12;96389.06;1717178;82;21375;-80
2022/02/03 21:43:39;;;;;;;4.12;2.98;;;;;;;2.94;65.64;96391.30;1711544;82;20984;-80
2022/02/03 21:46:05;;;;;;;6.83;3.72;;;;;;;2.91;65.50;96392.34;1723346;82;20947;-81
2022/02/03 21:48:31;;;;;;;7.78;2.87;;;;;;;2.88;65.77;96395.66;1711264;82;21483;-80
2022/02/03 21:51:03;;;;;;;5.92;4.00;;;;;;;2.85;65.83;96399.31;1726968;82;21000;-81
2022/02/03 21:53:29;;;;;;;6.12;3.22;;;;;;;2.83;66.56;96397.35;1701077;82;21384;-80
2022/02/03 21:55:54;;;;;;;5.45;3.92;;;;;;;2.81;66.39;96402.28;1720265;83;21064;-81
2022/02/03 21:58:25;;;;;;;4.67;3.52;;;;;;;2.81;66.81;96397.15;1722799;82;21381;-80
2022/02/03 22:00:48;;;;;;;4.42;2.75;;;;;;;2.79;67.33;96401.14;1712907;82;21014;-80
2022/02/03 22:03:13;;;;;;;6.42;3.50;;;;;;;2.79;67.14;96406.74;1710595;82;21443;-81
2022/02/03 22:05:40;;;;;;;4.50;2.75;;;;;;;2.80;67.42;96406.61;1722942;82;21036;-80
2022/02/03 22:08:06;;;;;;;6.28;3.83;;;;;;;2.81;67.75;96404.37;1714016;83;21096;-80
2022/02/03 22:10:32;;;;;;;6.25;3.37;;;;;;;2.80;68.02;96413.50;1710644;83;21475;-80
2022/02/03 22:12:58;;;;;;;4.53;3.27;;;;;;;2.78;68.35;96411.06;1721541;83;20997;-80
2022/02/03 22:15:24;;;;;;;6.08;3.50;;;;;;;2.76;68.66;96410.83;1713865;82;20990;-81